createdAt,value
2023-03-14T00:00:29.827Z,3.70
2023-03-14T00:02:58.004Z,4.22
2023-03-14T00:05:27.950Z,3.20
2023-03-14T00:07:56.252Z,3.22
2023-03-14T00:10:24.627Z,3.75
2023-03-14T00:12:52.575Z,3.67
2023-03-14T00:15:20.609Z,4.03
2023-03-14T00:17:48.609Z,4.03
2023-03-14T00:20:16.936Z,4.50
2023-03-14T00:22:46.226Z,3.63
2023-03-14T00:25:14.507Z,3.72
2023-03-14T00:27:42.527Z,3.35
2023-03-14T00:30:13.010Z,3.40
2023-03-14T00:32:41.127Z,3.38
2023-03-14T00:35:09.876Z,3.45
2023-03-14T00:37:37.869Z,3.00
2023-03-14T00:40:09.117Z,3.28
2023-03-14T00:42:37.292Z,3.28
2023-03-14T00:45:06.212Z,2.75
2023-03-14T00:47:34.235Z,2.90
2023-03-14T00:50:02.227Z,2.90
2023-03-14T00:52:30.614Z,2.97
2023-03-14T00:54:58.661Z,3.00
2023-03-14T00:57:28.002Z,3.15
2023-03-14T00:59:57.697Z,2.90
2023-03-14T01:02:26.027Z,3.35
2023-03-14T01:04:54.058Z,3.33
2023-03-14T01:07:22.173Z,3.13
2023-03-14T01:09:53.785Z,2.92
2023-03-14T01:12:22.190Z,3.63
2023-03-14T01:14:51.938Z,3.22
2023-03-14T01:17:19.961Z,3.28
2023-03-14T01:19:48.373Z,3.78
2023-03-14T01:22:16.583Z,2.67
2023-03-14T01:24:44.639Z,3.90
2023-03-14T01:27:12.636Z,3.47
2023-03-14T01:29:40.626Z,3.50
2023-03-14T01:32:10.118Z,3.63
2023-03-14T01:34:38.062Z,4.00
2023-03-14T01:37:06.478Z,4.43
2023-03-14T01:39:34.626Z,3.35
2023-03-14T01:42:02.928Z,3.67
2023-03-14T01:44:47.555Z,3.70
2023-03-14T01:47:17.183Z,3.67
2023-03-14T01:49:48.550Z,4.07
2023-03-14T01:52:21.034Z,3.65
2023-03-14T01:54:52.663Z,3.97
2023-03-14T01:57:24.604Z,3.63
2023-03-14T01:59:56.488Z,3.80
2023-03-14T02:02:28.393Z,4.10
2023-03-14T02:04:58.612Z,3.35
2023-03-14T02:07:32.674Z,3.63
2023-03-14T02:10:02.049Z,3.97
2023-03-14T02:12:30.566Z,3.78
2023-03-14T02:14:58.528Z,3.63
2023-03-14T02:17:27.964Z,3.25
2023-03-14T02:20:09.861Z,3.53
2023-03-14T02:22:40.940Z,4.00
2023-03-14T02:25:13.513Z,3.60
2023-03-14T02:27:42.993Z,3.33
2023-03-14T02:30:13.883Z,3.63
2023-03-14T02:32:49.054Z,3.72
2023-03-14T02:35:20.908Z,3.63
2023-03-14T02:37:54.108Z,3.65
2023-03-14T02:40:22.409Z,3.55
2023-03-14T02:42:52.128Z,3.72
2023-03-14T02:45:47.922Z,3.83
2023-03-14T02:48:20.290Z,3.63
2023-03-14T02:50:50.320Z,2.92
2023-03-14T02:53:22.881Z,3.53
2023-03-14T02:55:51.427Z,3.53
2023-03-14T02:58:21.414Z,3.40
2023-03-14T03:00:49.706Z,3.50
2023-03-14T03:03:17.906Z,3.08
2023-03-14T03:05:49.791Z,3.30
2023-03-14T03:08:18.244Z,3.53
2023-03-14T03:10:46.276Z,2.67
2023-03-14T03:13:14.287Z,3.45
2023-03-14T03:15:43.983Z,2.85
2023-03-14T03:18:12.703Z,2.85
2023-03-14T03:20:40.738Z,2.90
2023-03-14T03:23:08.913Z,2.90
2023-03-14T03:25:36.877Z,2.58
2023-03-14T03:28:08.632Z,2.45
2023-03-14T03:30:40.256Z,2.45
2023-03-14T03:33:11.197Z,2.60
2023-03-14T03:35:45.582Z,2.42
2023-03-14T03:38:13.914Z,2.10
2023-03-14T03:40:42.214Z,1.65
2023-03-14T03:43:10.365Z,1.88
2023-03-14T03:45:38.327Z,1.70
2023-03-14T03:48:06.977Z,2.05
2023-03-14T03:50:36.541Z,2.35
2023-03-14T03:53:04.606Z,2.10
2023-03-14T03:55:32.611Z,2.03
2023-03-14T03:58:00.672Z,1.73
2023-03-14T04:00:28.719Z,2.05
2023-03-14T04:02:56.689Z,1.83
2023-03-14T04:05:24.899Z,1.90
2023-03-14T04:07:54.230Z,1.85
2023-03-14T04:10:22.151Z,2.10
2023-03-14T04:12:50.400Z,1.95
2023-03-14T04:15:18.425Z,2.22
2023-03-14T04:17:46.557Z,2.38
2023-03-14T04:20:14.966Z,2.30
2023-03-14T04:22:44.634Z,2.30
2023-03-14T04:25:14.035Z,2.25
2023-03-14T04:27:42.162Z,2.17
2023-03-14T04:30:11.594Z,2.03
2023-03-14T04:32:41.391Z,2.17
2023-03-14T04:35:10.112Z,2.00
2023-03-14T04:37:38.155Z,2.83
2023-03-14T04:40:07.778Z,2.70
2023-03-14T04:42:37.231Z,2.35
2023-03-14T04:45:06.247Z,2.20
2023-03-14T04:47:34.228Z,1.98
2023-03-14T04:50:02.447Z,1.90
2023-03-14T04:52:30.466Z,1.73
2023-03-14T04:54:58.562Z,2.10
2023-03-14T04:57:26.685Z,2.38
2023-03-14T04:59:56.302Z,2.20
2023-03-14T05:02:24.295Z,1.88
2023-03-14T05:04:52.312Z,1.95
2023-03-14T05:07:20.234Z,2.20
2023-03-14T05:09:48.153Z,2.40
2023-03-14T05:12:16.146Z,1.90
2023-03-14T05:14:44.085Z,2.37
2023-03-14T05:17:15.310Z,2.40
2023-03-14T05:19:43.457Z,2.13
2023-03-14T05:22:12.240Z,2.40
2023-03-14T05:24:40.212Z,2.50
2023-03-14T05:27:08.680Z,2.30
2023-03-14T05:29:36.600Z,2.28
2023-03-14T05:32:04.586Z,2.38
2023-03-14T05:34:34.167Z,2.03
2023-03-14T05:37:02.148Z,2.33
2023-03-14T05:39:30.177Z,2.40
2023-03-14T05:41:58.556Z,2.37
2023-03-14T05:44:26.684Z,2.00
2023-03-14T05:46:54.688Z,1.75
2023-03-14T05:49:22.868Z,1.75
2023-03-14T05:51:53.568Z,2.08
2023-03-14T05:54:21.563Z,1.60
2023-03-14T05:56:50.699Z,2.10
2023-03-14T05:59:18.757Z,1.85
2023-03-14T06:01:47.137Z,2.17
2023-03-14T06:04:15.398Z,2.25
2023-03-14T06:06:43.424Z,2.05
2023-03-14T06:09:12.734Z,2.13
2023-03-14T06:11:40.824Z,1.77
2023-03-14T06:14:09.669Z,1.83
2023-03-14T06:16:37.606Z,2.15
2023-03-14T06:19:05.712Z,1.83
2023-03-14T06:21:33.719Z,1.90
2023-03-14T06:24:01.764Z,1.63
2023-03-14T06:26:31.158Z,1.70
2023-03-14T06:29:02.385Z,2.40
2023-03-14T06:31:30.361Z,1.63
2023-03-14T06:33:58.583Z,1.80
2023-03-14T06:36:26.859Z,2.00
2023-03-14T06:38:54.802Z,2.03
2023-03-14T06:41:24.721Z,1.50
2023-03-14T06:43:55.413Z,2.03
2023-03-14T06:46:24.713Z,1.88
2023-03-14T06:48:52.757Z,1.95
2023-03-14T06:51:20.691Z,2.10
2023-03-14T06:53:49.093Z,2.20
2023-03-14T06:56:17.052Z,2.63
2023-03-14T06:58:47.238Z,2.47
2023-03-14T07:01:25.555Z,2.42
2023-03-14T07:03:53.855Z,2.38
2023-03-14T07:06:22.096Z,2.50
2023-03-14T07:08:50.483Z,2.40
2023-03-14T07:11:18.572Z,2.50
2023-03-14T07:13:46.595Z,2.35
2023-03-14T07:16:14.877Z,2.35
2023-03-14T07:18:44.405Z,2.30
2023-03-14T07:21:13.291Z,1.98
2023-03-14T07:23:42.185Z,2.10
2023-03-14T07:26:10.498Z,2.55
2023-03-14T07:28:38.751Z,1.80
2023-03-14T07:31:07.318Z,2.83
2023-03-14T07:33:35.662Z,2.45
2023-03-14T07:36:05.884Z,2.60
2023-03-14T07:38:34.286Z,2.10
2023-03-14T07:41:02.428Z,2.30
2023-03-14T07:43:30.757Z,2.70
2023-03-14T07:45:59.375Z,2.17
2023-03-14T07:48:28.490Z,2.30
2023-03-14T07:50:57.276Z,2.58
2023-03-14T07:53:27.104Z,2.30
2023-03-14T07:55:55.867Z,2.85
2023-03-14T07:58:23.947Z,2.40
2023-03-14T08:00:51.945Z,2.40
2023-03-14T08:03:20.432Z,2.13
2023-03-14T08:05:50.306Z,2.13
2023-03-14T08:08:18.377Z,2.65
2023-03-14T08:10:48.608Z,2.42
2023-03-14T08:13:16.884Z,2.70
2023-03-14T08:15:45.335Z,2.30
2023-03-14T08:18:13.309Z,2.20
2023-03-14T08:20:41.463Z,2.38
2023-03-14T08:23:09.669Z,2.13
2023-03-14T08:25:37.733Z,1.92
2023-03-14T08:28:07.269Z,2.25
2023-03-14T08:30:35.369Z,2.17
2023-03-14T08:33:03.611Z,2.30
2023-03-14T08:35:31.688Z,2.33
2023-03-14T08:38:00.032Z,2.20
2023-03-14T08:40:28.067Z,2.10
2023-03-14T08:42:56.138Z,2.38
2023-03-14T08:45:26.171Z,2.50
2023-03-14T08:47:54.288Z,2.28
2023-03-14T08:50:24.152Z,2.00
2023-03-14T08:52:52.399Z,2.15
2023-03-14T08:55:20.656Z,2.38
2023-03-14T08:57:48.782Z,1.30
2023-03-14T09:00:19.777Z,1.10
2023-03-14T09:02:49.553Z,1.00
2023-03-14T09:05:17.590Z,1.60
2023-03-14T09:10:31.232Z,1.37
2023-03-14T09:12:59.765Z,1.03
2023-03-14T09:15:27.917Z,1.60
2023-03-14T09:17:57.327Z,1.83
2023-03-14T09:20:25.774Z,1.43
2023-03-14T09:22:53.773Z,1.27
2023-03-14T09:25:21.762Z,1.03
2023-03-14T09:27:49.994Z,0.70
2023-03-14T09:30:18.680Z,0.60
2023-03-14T09:32:46.828Z,0.40
2023-03-14T09:35:16.596Z,0.90
2023-03-14T09:37:44.676Z,0.80
2023-03-14T09:40:15.641Z,0.73
2023-03-14T09:42:44.395Z,0.70
2023-03-14T09:45:16.233Z,0.60
2023-03-14T09:47:58.346Z,0.40
2023-03-14T09:50:34.903Z,0.60
2023-03-14T09:53:07.070Z,0.57
2023-03-14T09:55:37.085Z,0.60
2023-03-14T09:58:13.325Z,0.60
2023-03-14T10:00:41.373Z,0.50
2023-03-14T10:03:24.723Z,0.47
2023-03-14T10:05:54.586Z,0.70
2023-03-14T10:08:22.896Z,0.60
2023-03-14T10:10:51.130Z,0.70
2023-03-14T10:13:22.691Z,0.53
2023-03-14T10:15:55.249Z,0.43
2023-03-14T10:18:28.041Z,0.60
2023-03-14T10:21:07.903Z,0.50
2023-03-14T10:23:36.889Z,0.50
2023-03-14T10:26:09.044Z,0.73
2023-03-14T10:28:41.854Z,0.57
2023-03-14T10:31:10.169Z,0.90
2023-03-14T10:33:39.204Z,0.67
2023-03-14T10:36:21.673Z,0.70
2023-03-14T10:38:50.299Z,0.73
2023-03-14T10:41:21.421Z,0.60
2023-03-14T10:43:53.398Z,0.80
2023-03-14T10:46:23.073Z,0.70
2023-03-14T10:48:51.163Z,1.07
2023-03-14T10:51:28.386Z,1.30
2023-03-14T10:54:01.773Z,0.80
2023-03-14T10:56:36.452Z,1.23
2023-03-14T10:59:06.133Z,0.90
2023-03-14T11:01:43.861Z,1.17
2023-03-14T11:04:23.205Z,1.00
2023-03-14T11:06:59.358Z,1.37
2023-03-14T11:09:34.292Z,1.20
2023-03-14T11:12:12.472Z,1.33
2023-03-14T11:14:46.884Z,1.70
2023-03-14T11:17:20.421Z,1.57
2023-03-14T11:20:05.013Z,1.87
2023-03-14T11:22:43.224Z,2.17
2023-03-14T11:25:25.900Z,2.63
2023-03-14T11:28:02.580Z,1.97
2023-03-14T11:30:38.637Z,2.17
2023-03-14T11:33:15.581Z,1.80
2023-03-14T11:35:49.707Z,2.43
2023-03-14T11:38:31.180Z,2.17
2023-03-14T11:41:00.940Z,2.30
2023-03-14T11:43:32.168Z,2.53
2023-03-14T11:46:07.667Z,2.43
2023-03-14T11:48:46.834Z,3.00
2023-03-14T11:51:22.589Z,3.17
2023-03-14T11:54:03.183Z,2.67
2023-03-14T11:56:39.397Z,2.83
2023-03-14T11:59:14.253Z,3.37
2023-03-14T12:01:56.672Z,4.00
2023-03-14T12:04:47.447Z,3.80
2023-03-14T12:07:21.858Z,3.00
2023-03-14T12:09:53.059Z,3.27
2023-03-14T12:12:24.419Z,3.67
2023-03-14T12:14:57.617Z,3.10
2023-03-14T12:17:35.891Z,3.40
2023-03-14T12:20:08.344Z,3.23
2023-03-14T12:22:43.226Z,3.30
2023-03-14T12:25:20.829Z,3.53
2023-03-14T12:28:06.171Z,2.90
2023-03-14T12:30:37.260Z,3.93
2023-03-14T12:33:28.118Z,3.07
2023-03-14T12:36:01.686Z,3.60
2023-03-14T12:38:41.673Z,2.83
2023-03-14T12:41:19.499Z,3.17
2023-03-14T12:43:47.716Z,3.00
2023-03-14T12:46:25.461Z,4.20
2023-03-14T12:48:58.112Z,2.67
2023-03-14T12:51:37.001Z,2.20
2023-03-14T12:54:39.824Z,2.80
2023-03-14T12:57:29.167Z,2.43
2023-03-14T13:00:00.115Z,2.17
2023-03-14T13:02:31.638Z,1.93
2023-03-14T13:05:06.859Z,2.03
2023-03-14T13:08:05.483Z,2.20
2023-03-14T13:10:44.168Z,1.93
2023-03-14T13:13:21.081Z,2.10
2023-03-14T13:15:52.203Z,2.07
2023-03-14T13:18:28.270Z,2.40
2023-03-14T13:21:00.435Z,2.80
2023-03-14T13:23:30.370Z,2.50
2023-03-14T13:25:58.823Z,2.37
2023-03-14T13:28:29.044Z,2.40
2023-03-14T13:31:00.838Z,1.87
2023-03-14T13:33:29.837Z,2.23
2023-03-14T13:35:59.752Z,2.27
2023-03-14T13:38:31.353Z,1.90
2023-03-14T13:41:01.268Z,1.73
2023-03-14T13:43:33.804Z,1.93
2023-03-14T13:46:05.821Z,2.10
2023-03-14T13:48:36.770Z,2.40
2023-03-14T13:51:08.248Z,2.43
2023-03-14T13:53:46.021Z,2.90
2023-03-14T13:56:16.000Z,2.40
2023-03-14T13:58:45.824Z,2.50
2023-03-14T14:01:18.720Z,2.53
2023-03-14T14:03:52.100Z,1.83
2023-03-14T14:06:32.085Z,1.90
2023-03-14T14:09:03.992Z,2.00
2023-03-14T14:11:59.878Z,2.30
2023-03-14T14:14:40.398Z,1.87
2023-03-14T14:17:13.257Z,2.10
2023-03-14T14:19:43.165Z,1.90
2023-03-14T14:22:12.661Z,2.30
2023-03-14T14:24:41.487Z,3.93
2023-03-14T14:27:15.618Z,4.93
2023-03-14T14:29:46.576Z,5.50
2023-03-14T14:32:17.159Z,3.00
2023-03-14T14:34:50.849Z,2.53
2023-03-14T14:37:25.693Z,4.43
2023-03-14T14:39:57.506Z,5.23
2023-03-14T14:42:44.187Z,2.70
2023-03-14T14:45:18.619Z,2.60
2023-03-14T14:47:55.733Z,3.00
2023-03-14T14:50:31.321Z,3.23
2023-03-14T14:53:00.836Z,3.37
2023-03-14T14:55:34.401Z,1.97
2023-03-14T14:58:14.798Z,2.90
2023-03-14T15:00:51.587Z,2.10
2023-03-14T15:03:19.876Z,1.70
2023-03-14T15:05:48.249Z,1.77
2023-03-14T15:08:16.514Z,2.37
2023-03-14T15:10:44.683Z,2.03
2023-03-14T15:13:14.417Z,2.27
2023-03-14T15:15:45.545Z,2.40
2023-03-14T15:18:16.677Z,2.37
2023-03-14T15:20:44.887Z,2.40
2023-03-14T15:23:13.645Z,1.93
2023-03-14T15:25:55.120Z,2.63
2023-03-14T15:28:26.122Z,2.83
2023-03-14T15:30:57.731Z,2.57
2023-03-14T15:33:26.729Z,2.40
2023-03-14T15:35:55.149Z,2.23
2023-03-14T15:38:24.293Z,2.30
2023-03-14T15:40:53.137Z,2.80
2023-03-14T15:43:21.431Z,2.50
2023-03-14T15:45:50.746Z,2.10
2023-03-14T15:48:22.164Z,2.40
2023-03-14T15:50:50.405Z,2.17
2023-03-14T15:53:18.797Z,2.40
2023-03-14T15:55:46.877Z,2.43
2023-03-14T15:58:21.445Z,1.93
2023-03-14T16:00:50.523Z,2.33
2023-03-14T16:03:19.880Z,2.13
2023-03-14T16:05:47.971Z,1.67
2023-03-14T16:08:16.052Z,1.93
2023-03-14T16:10:44.270Z,1.87
2023-03-14T16:13:13.229Z,2.23
2023-03-14T16:15:41.295Z,2.50
2023-03-14T16:18:21.157Z,2.37
2023-03-14T16:20:56.149Z,2.37
2023-03-14T16:23:24.561Z,4.73
2023-03-14T16:25:53.267Z,2.70
2023-03-14T16:28:21.679Z,4.33
2023-03-14T16:30:50.255Z,3.37
2023-03-14T16:33:18.991Z,2.73
2023-03-14T16:35:57.176Z,3.07
2023-03-14T16:38:25.784Z,3.03
2023-03-14T16:41:01.933Z,2.90
2023-03-14T16:43:30.357Z,2.27
2023-03-14T16:46:00.681Z,2.93
2023-03-14T16:48:29.250Z,2.37
2023-03-14T16:50:59.074Z,11.17
2023-03-14T16:53:30.131Z,4.63
2023-03-14T16:55:59.789Z,11.73
2023-03-14T16:58:27.891Z,2.37
2023-03-14T17:00:58.172Z,1.97
2023-03-14T17:03:27.704Z,2.63
2023-03-14T17:05:55.824Z,2.10
2023-03-14T17:08:25.279Z,1.97
2023-03-14T17:10:53.352Z,3.90
2023-03-14T17:13:25.687Z,5.57
2023-03-14T17:15:55.805Z,2.57
2023-03-14T17:18:24.514Z,2.50
2023-03-14T17:20:53.171Z,2.80
2023-03-14T17:23:21.404Z,3.50
2023-03-14T17:25:52.150Z,2.87
2023-03-14T17:28:22.148Z,2.83
2023-03-14T17:30:50.683Z,3.40
2023-03-14T17:33:18.984Z,2.87
2023-03-14T17:35:47.015Z,3.23
2023-03-14T17:38:15.037Z,2.80
2023-03-14T17:40:47.765Z,3.00
2023-03-14T17:43:17.241Z,2.10
2023-03-14T17:45:45.269Z,2.30
2023-03-14T17:48:15.627Z,2.33
2023-03-14T17:50:43.630Z,2.33
2023-03-14T17:53:11.639Z,1.93
2023-03-14T17:55:42.819Z,2.80
2023-03-14T17:58:12.880Z,3.17
2023-03-14T18:00:42.331Z,1.90
2023-03-14T18:03:10.517Z,2.20
2023-03-14T18:05:39.967Z,1.90
2023-03-14T18:08:09.427Z,2.00
2023-03-14T18:10:38.556Z,1.93
2023-03-14T18:13:06.562Z,1.80
2023-03-14T18:15:35.379Z,1.73
2023-03-14T18:18:05.353Z,2.17
2023-03-14T18:20:33.668Z,2.67
2023-03-14T18:23:01.966Z,2.67
2023-03-14T18:25:30.551Z,2.30
2023-03-14T18:27:58.545Z,2.17
2023-03-14T18:30:26.637Z,2.60
2023-03-14T18:32:54.849Z,1.83
2023-03-14T18:35:24.361Z,2.00
2023-03-14T18:37:52.318Z,2.00
2023-03-14T18:40:20.754Z,1.93
2023-03-14T18:42:48.701Z,2.33
2023-03-14T18:45:17.088Z,2.30
2023-03-14T18:47:45.149Z,2.13
2023-03-14T18:50:13.992Z,1.77
2023-03-14T18:52:43.436Z,2.10
2023-03-14T18:55:11.912Z,2.50
2023-03-14T18:57:39.937Z,2.20
2023-03-14T19:00:10.868Z,1.93
2023-03-14T19:02:39.058Z,1.90
2023-03-14T19:05:09.097Z,2.10
2023-03-14T19:07:37.122Z,1.87
2023-03-14T19:10:07.682Z,2.13
2023-03-14T19:12:35.649Z,2.23
2023-03-14T19:15:03.761Z,2.20
2023-03-14T19:17:31.795Z,2.10
2023-03-14T19:19:59.911Z,1.70
2023-03-14T19:22:27.960Z,1.83
2023-03-14T19:24:56.818Z,2.30
2023-03-14T19:27:26.298Z,1.90
2023-03-14T19:29:54.332Z,2.27
2023-03-14T19:32:22.509Z,2.23
2023-03-14T19:34:50.493Z,2.10
2023-03-14T19:37:18.638Z,2.23
2023-03-14T19:39:47.090Z,1.83
2023-03-14T19:42:15.351Z,2.30
2023-03-14T19:44:44.708Z,2.77
2023-03-14T19:47:12.671Z,2.90
2023-03-14T19:49:40.652Z,2.20
2023-03-14T19:52:08.650Z,1.80
2023-03-14T19:54:36.640Z,2.37
2023-03-14T19:57:05.851Z,2.20
2023-03-14T19:59:33.862Z,2.40
2023-03-14T20:02:03.447Z,2.10
2023-03-14T20:04:31.497Z,2.20
2023-03-14T20:06:59.496Z,2.20
2023-03-14T20:09:27.792Z,2.47
2023-03-14T20:11:55.758Z,2.37
2023-03-14T20:14:24.259Z,2.50
2023-03-14T20:16:52.396Z,2.43
2023-03-14T20:19:22.175Z,2.13
2023-03-14T20:21:51.058Z,2.40
2023-03-14T20:24:20.619Z,2.07
2023-03-14T20:26:48.737Z,1.83
2023-03-14T20:29:16.757Z,1.87
2023-03-14T20:31:44.857Z,1.70
2023-03-14T20:34:12.866Z,2.30
2023-03-14T20:36:42.929Z,2.00
2023-03-14T20:39:14.292Z,1.63
2023-03-14T20:41:42.415Z,1.70
2023-03-14T20:44:11.330Z,1.83
2023-03-14T20:46:39.519Z,1.77
2023-03-14T20:49:07.797Z,1.80
2023-03-14T20:51:36.091Z,2.17
2023-03-14T20:54:07.497Z,2.17
2023-03-14T20:56:35.516Z,2.13
2023-03-14T20:59:03.478Z,1.93
2023-03-14T21:01:31.608Z,1.87
2023-03-14T21:03:59.645Z,2.27
2023-03-14T21:06:27.710Z,2.03
2023-03-14T21:08:55.739Z,2.17
2023-03-14T21:11:25.157Z,1.70
2023-03-14T21:13:53.114Z,1.73
2023-03-14T21:16:21.254Z,1.77
2023-03-14T21:18:49.286Z,2.47
2023-03-14T21:21:17.525Z,1.87
2023-03-14T21:23:45.915Z,2.57
2023-03-14T21:26:13.897Z,1.60
2023-03-14T21:28:43.681Z,2.10
2023-03-14T21:31:12.409Z,1.43
2023-03-14T21:33:40.625Z,2.00
2023-03-14T21:36:09.590Z,1.80
2023-03-14T21:38:37.600Z,1.70
2023-03-14T21:41:07.672Z,2.00
2023-03-14T21:43:35.830Z,1.90
2023-03-14T21:46:05.699Z,2.50
2023-03-14T21:48:33.985Z,1.80
2023-03-14T21:51:05.419Z,1.80
2023-03-14T21:53:33.784Z,2.03
2023-03-14T21:56:02.003Z,1.97
2023-03-14T21:58:29.999Z,2.00
2023-03-14T22:01:06.503Z,2.13
2023-03-14T22:03:35.725Z,2.23
2023-03-14T22:06:04.285Z,2.40
2023-03-14T22:08:32.326Z,1.80
2023-03-14T22:11:00.357Z,2.10
2023-03-14T22:13:28.358Z,1.90
2023-03-14T22:15:56.411Z,2.13
2023-03-14T22:18:26.353Z,2.30
2023-03-14T22:20:54.457Z,1.97
2023-03-14T22:23:22.442Z,1.90
2023-03-14T22:25:50.590Z,2.53
2023-03-14T22:28:19.609Z,1.80
2023-03-14T22:30:48.801Z,2.37
2023-03-14T22:33:17.521Z,2.23
2023-03-14T22:35:50.457Z,2.30
2023-03-14T22:38:18.608Z,2.27
2023-03-14T22:40:46.947Z,2.20
2023-03-14T22:43:15.113Z,1.70
2023-03-14T22:45:43.182Z,2.27
2023-03-14T22:48:11.410Z,1.57
2023-03-14T22:50:40.648Z,1.97
2023-03-14T22:53:10.077Z,2.20
2023-03-14T22:55:38.036Z,1.60
2023-03-14T22:58:06.085Z,1.77
2023-03-14T23:00:34.119Z,1.97
2023-03-14T23:03:02.054Z,2.07
2023-03-14T23:05:30.103Z,2.37
2023-03-14T23:07:58.137Z,1.47
2023-03-14T23:10:28.011Z,1.73
2023-03-14T23:12:57.699Z,2.13
2023-03-14T23:15:26.431Z,2.20
2023-03-14T23:17:54.636Z,1.80
2023-03-14T23:20:22.943Z,1.80
2023-03-14T23:22:51.331Z,2.00
2023-03-14T23:25:19.939Z,1.80
2023-03-14T23:27:49.274Z,1.57
2023-03-14T23:30:18.674Z,2.27
2023-03-14T23:32:46.938Z,2.10
2023-03-14T23:35:15.724Z,2.17
2023-03-14T23:37:43.713Z,2.20
2023-03-14T23:40:13.135Z,1.63
2023-03-14T23:42:41.141Z,1.67
2023-03-14T23:45:14.150Z,2.03
2023-03-14T23:47:42.243Z,2.33
2023-03-14T23:50:11.868Z,1.70
2023-03-14T23:52:39.835Z,1.90
2023-03-14T23:55:08.293Z,2.27
2023-03-14T23:57:36.227Z,2.20
